createdAt,value
2022-07-29T00:02:25.329Z,2.08
2022-07-29T00:04:51.856Z,2.60
2022-07-29T00:07:18.452Z,2.17
2022-07-29T00:09:51.973Z,2.40
2022-07-29T00:12:21.471Z,2.20
2022-07-29T00:14:54.490Z,1.92
2022-07-29T00:17:20.971Z,2.17
2022-07-29T00:19:47.414Z,2.83
2022-07-29T00:22:14.200Z,2.30
2022-07-29T00:24:40.715Z,2.60
2022-07-29T00:27:07.169Z,2.33
2022-07-29T00:29:34.829Z,2.38
2022-07-29T00:32:05.712Z,2.05
2022-07-29T00:34:50.788Z,2.00
2022-07-29T00:37:17.396Z,2.25
2022-07-29T00:39:44.026Z,2.40
2022-07-29T00:42:10.850Z,2.10
2022-07-29T00:44:41.686Z,2.50
2022-07-29T00:47:09.362Z,2.97
2022-07-29T00:49:36.588Z,2.40
2022-07-29T00:52:04.788Z,2.08
2022-07-29T00:54:31.326Z,2.13
2022-07-29T00:57:01.411Z,2.30
2022-07-29T00:59:35.103Z,2.10
2022-07-29T01:02:03.598Z,2.83
2022-07-29T01:04:30.697Z,2.20
2022-07-29T01:06:57.213Z,2.33
2022-07-29T01:09:43.168Z,2.20
2022-07-29T01:12:11.368Z,2.22
2022-07-29T01:14:38.440Z,2.28
2022-07-29T01:17:11.957Z,2.20
2022-07-29T01:20:04.706Z,2.35
2022-07-29T01:22:59.750Z,2.45
2022-07-29T01:25:44.474Z,2.40
2022-07-29T01:28:32.614Z,2.17
2022-07-29T01:31:00.216Z,2.20
2022-07-29T01:33:46.326Z,2.40
2022-07-29T01:36:16.077Z,2.67
2022-07-29T01:38:44.159Z,2.30
2022-07-29T01:41:14.083Z,2.28
2022-07-29T01:43:51.673Z,2.45
2022-07-29T01:46:26.675Z,2.38
2022-07-29T01:48:57.464Z,2.30
2022-07-29T01:51:33.569Z,2.20
2022-07-29T01:54:23.840Z,2.00
2022-07-29T01:56:52.436Z,2.00
2022-07-29T01:59:19.789Z,2.50
2022-07-29T02:01:49.359Z,2.88
2022-07-29T02:04:28.865Z,2.22
2022-07-29T02:07:00.059Z,2.70
2022-07-29T02:09:27.263Z,2.28
2022-07-29T02:11:56.197Z,2.00
2022-07-29T02:14:24.259Z,2.33
2022-07-29T02:16:54.540Z,2.35
2022-07-29T02:19:23.302Z,2.30
2022-07-29T02:21:52.531Z,2.63
2022-07-29T02:24:19.601Z,2.50
2022-07-29T02:26:46.546Z,2.30
2022-07-29T02:29:13.531Z,2.30
2022-07-29T02:31:40.496Z,2.10
2022-07-29T02:34:08.448Z,2.40
2022-07-29T02:36:35.713Z,2.50
2022-07-29T02:39:03.710Z,2.40
2022-07-29T02:41:34.726Z,2.53
2022-07-29T02:46:39.159Z,2.47
2022-07-29T02:49:26.001Z,2.40
2022-07-29T02:51:55.908Z,2.42
2022-07-29T02:54:44.816Z,2.50
2022-07-29T02:57:23.998Z,2.33
2022-07-29T02:59:53.992Z,2.60
2022-07-29T03:02:21.403Z,2.65
2022-07-29T03:04:50.123Z,2.80
2022-07-29T03:07:19.519Z,2.38
2022-07-29T03:09:46.457Z,2.13
2022-07-29T03:12:13.304Z,2.15
2022-07-29T03:14:40.075Z,2.03
2022-07-29T03:17:06.825Z,2.30
2022-07-29T03:19:33.359Z,2.75
2022-07-29T03:22:00.131Z,2.35
2022-07-29T03:24:34.306Z,2.70
2022-07-29T03:27:01.630Z,2.38
2022-07-29T03:29:33.894Z,2.40
2022-07-29T03:32:09.394Z,2.35
2022-07-29T03:34:38.369Z,2.58
2022-07-29T03:37:06.753Z,2.70
2022-07-29T03:39:37.738Z,2.55
2022-07-29T03:44:31.819Z,2.40
2022-07-29T03:47:01.244Z,2.50
2022-07-29T03:49:27.888Z,2.50
2022-07-29T03:51:54.702Z,2.75
2022-07-29T03:54:21.660Z,2.50
2022-07-29T03:56:49.589Z,2.50
2022-07-29T03:59:17.548Z,2.60
2022-07-29T04:01:44.525Z,2.40
2022-07-29T04:04:11.375Z,2.60
2022-07-29T04:06:42.491Z,2.65
2022-07-29T04:09:09.897Z,2.58
2022-07-29T04:12:03.774Z,2.50
2022-07-29T04:14:24.850Z,2.85
2022-07-29T04:16:51.271Z,2.65
2022-07-29T04:19:17.716Z,2.80
2022-07-29T04:21:46.057Z,3.00
2022-07-29T04:24:12.758Z,3.25
2022-07-29T04:26:39.439Z,2.55
2022-07-29T04:29:06.074Z,2.55
2022-07-29T04:31:32.570Z,3.38
2022-07-29T04:33:59.089Z,3.78
2022-07-29T04:36:29.470Z,3.85
2022-07-29T04:38:56.745Z,3.88
2022-07-29T04:41:23.307Z,4.20
2022-07-29T04:43:49.998Z,4.10
2022-07-29T04:46:16.598Z,5.20
2022-07-29T04:48:43.150Z,5.47
2022-07-29T04:51:09.684Z,4.93
2022-07-29T04:53:36.116Z,5.03
2022-07-29T04:56:03.206Z,5.57
2022-07-29T04:58:29.744Z,4.72
2022-07-29T05:00:56.323Z,5.95
2022-07-29T05:03:22.839Z,5.53
2022-07-29T05:05:49.514Z,6.07
2022-07-29T05:08:16.083Z,5.57
2022-07-29T05:10:42.620Z,6.35
2022-07-29T05:13:09.133Z,5.40
2022-07-29T05:15:36.166Z,5.35
2022-07-29T05:18:02.763Z,6.25
2022-07-29T05:20:30.480Z,5.65
2022-07-29T05:23:00.742Z,5.20
2022-07-29T05:25:43.454Z,5.22
2022-07-29T05:28:11.447Z,5.72
2022-07-29T05:30:37.990Z,5.40
2022-07-29T05:33:04.740Z,6.32
2022-07-29T05:35:31.299Z,6.45
2022-07-29T05:37:57.774Z,5.40
2022-07-29T05:40:24.244Z,5.60
2022-07-29T05:42:50.796Z,5.70
2022-07-29T05:45:17.331Z,5.95
2022-07-29T05:47:43.883Z,5.47
2022-07-29T05:50:10.454Z,6.63
2022-07-29T05:52:38.880Z,6.47
2022-07-29T05:55:06.586Z,6.30
2022-07-29T05:57:33.386Z,6.97
2022-07-29T06:00:00.090Z,6.40
2022-07-29T06:02:26.673Z,6.13
2022-07-29T06:04:53.309Z,7.75
2022-07-29T06:07:19.921Z,7.47
2022-07-29T06:09:46.410Z,7.18
2022-07-29T06:12:13.039Z,6.95
2022-07-29T06:14:39.626Z,6.10
2022-07-29T06:17:06.625Z,7.32
2022-07-29T06:19:35.539Z,6.80
2022-07-29T06:22:02.017Z,6.78
2022-07-29T06:24:28.579Z,7.25
2022-07-29T06:26:55.119Z,7.65
2022-07-29T06:29:21.563Z,7.97
2022-07-29T06:31:49.498Z,7.93
2022-07-29T06:34:16.672Z,8.30
2022-07-29T06:36:44.499Z,8.95
2022-07-29T06:39:12.436Z,7.53
2022-07-29T06:41:39.046Z,7.90
2022-07-29T06:44:05.659Z,8.77
2022-07-29T06:46:33.160Z,7.93
2022-07-29T06:49:02.363Z,8.05
2022-07-29T06:51:28.975Z,8.65
2022-07-29T06:54:00.494Z,7.30
2022-07-29T06:56:39.213Z,7.80
2022-07-29T06:59:10.067Z,7.68
2022-07-29T07:01:41.471Z,8.70
2022-07-29T07:04:09.782Z,8.57
2022-07-29T07:06:37.087Z,9.07
2022-07-29T07:09:03.824Z,8.70
2022-07-29T07:11:30.318Z,7.72
2022-07-29T07:14:02.252Z,7.20
2022-07-29T07:16:30.161Z,7.15
2022-07-29T07:18:56.648Z,7.70
2022-07-29T07:21:23.324Z,7.85
2022-07-29T07:23:49.765Z,7.75
2022-07-29T07:26:16.487Z,7.45
2022-07-29T07:28:42.962Z,8.10
2022-07-29T07:31:10.546Z,7.57
2022-07-29T07:33:37.133Z,7.25
2022-07-29T07:36:03.891Z,6.72
2022-07-29T07:38:30.381Z,8.32
2022-07-29T07:40:56.888Z,8.88
2022-07-29T07:43:23.542Z,7.75
2022-07-29T07:45:50.017Z,8.18
2022-07-29T07:48:16.554Z,8.43
2022-07-29T07:50:44.553Z,7.97
2022-07-29T07:53:11.655Z,9.50
2022-07-29T07:56:09.530Z,9.55
2022-07-29T07:58:31.347Z,7.85
2022-07-29T08:01:00.096Z,8.43
2022-07-29T08:03:26.705Z,9.73
2022-07-29T08:05:55.117Z,7.78
2022-07-29T08:08:22.030Z,8.15
2022-07-29T08:10:54.594Z,8.70
2022-07-29T08:13:22.491Z,8.45
2022-07-29T08:15:58.644Z,9.10
2022-07-29T08:18:26.241Z,8.73
2022-07-29T08:20:52.781Z,7.70
2022-07-29T08:23:22.242Z,9.00
2022-07-29T08:25:50.199Z,8.05
2022-07-29T08:28:17.844Z,9.20
2022-07-29T08:30:44.282Z,8.45
2022-07-29T08:33:10.894Z,7.20
2022-07-29T08:35:37.427Z,7.90
2022-07-29T08:38:04.355Z,8.38
2022-07-29T08:40:32.404Z,7.75
2022-07-29T08:43:00.527Z,8.40
2022-07-29T08:45:27.875Z,8.38
2022-07-29T08:47:54.487Z,8.48
2022-07-29T08:50:21.079Z,8.40
2022-07-29T08:52:48.162Z,10.05
2022-07-29T08:55:16.343Z,9.77
2022-07-29T08:57:51.972Z,9.18
2022-07-29T09:00:22.344Z,9.20
2022-07-29T09:02:52.533Z,10.27
2022-07-29T09:05:19.497Z,10.10
2022-07-29T09:07:48.858Z,10.20
2022-07-29T09:10:15.708Z,10.73
2022-07-29T09:12:42.555Z,10.75
2022-07-29T09:15:09.735Z,10.75
2022-07-29T09:17:47.621Z,11.10
2022-07-29T09:20:16.290Z,10.82
2022-07-29T09:22:42.885Z,9.63
2022-07-29T09:25:09.930Z,9.60
2022-07-29T09:27:36.945Z,10.48
2022-07-29T09:30:08.150Z,10.65
2022-07-29T09:32:55.117Z,9.77
2022-07-29T09:35:25.835Z,8.60
2022-07-29T09:37:52.445Z,9.35
2022-07-29T09:40:29.057Z,8.95
2022-07-29T09:42:59.244Z,9.00
2022-07-29T09:45:33.737Z,9.00
2022-07-29T09:48:04.116Z,7.97
2022-07-29T09:50:43.490Z,8.65
2022-07-29T09:53:10.965Z,7.88
2022-07-29T09:56:04.316Z,7.75
2022-07-29T09:58:30.985Z,8.20
2022-07-29T10:00:57.865Z,8.00
2022-07-29T10:03:25.201Z,6.70
2022-07-29T10:06:14.382Z,7.22
2022-07-29T10:08:42.964Z,6.88
2022-07-29T10:11:15.381Z,7.25
2022-07-29T10:13:43.151Z,7.07
2022-07-29T10:16:09.908Z,7.47
2022-07-29T10:18:36.703Z,7.00
2022-07-29T10:21:03.301Z,6.82
2022-07-29T10:23:30.654Z,7.15
2022-07-29T10:26:13.921Z,6.68
2022-07-29T10:28:40.361Z,6.30
2022-07-29T10:31:09.366Z,6.90
2022-07-29T10:33:57.124Z,6.95
2022-07-29T10:36:34.568Z,6.43
2022-07-29T10:39:22.322Z,6.97
2022-07-29T10:42:19.878Z,6.82
2022-07-29T10:44:47.091Z,7.35
2022-07-29T10:47:28.069Z,7.10
2022-07-29T10:50:01.074Z,6.75
2022-07-29T10:52:50.027Z,7.05
2022-07-29T10:55:34.177Z,6.45
2022-07-29T10:58:19.863Z,6.43
2022-07-29T11:00:51.357Z,6.65
2022-07-29T11:03:50.468Z,5.55
2022-07-29T11:06:26.724Z,6.30
2022-07-29T11:09:34.943Z,6.68
2022-07-29T11:12:04.358Z,5.97
2022-07-29T11:14:58.014Z,5.95
2022-07-29T11:17:24.667Z,6.35
2022-07-29T11:19:51.262Z,6.18
2022-07-29T11:22:35.281Z,5.53
2022-07-29T11:25:18.777Z,5.40
2022-07-29T11:27:45.979Z,5.03
2022-07-29T11:30:13.065Z,5.32
2022-07-29T11:32:48.632Z,4.72
2022-07-29T11:35:36.900Z,4.72
2022-07-29T11:38:22.596Z,5.20
2022-07-29T11:41:20.961Z,4.78
2022-07-29T11:43:48.444Z,4.55
2022-07-29T11:46:24.952Z,4.27
2022-07-29T11:48:52.163Z,4.38
2022-07-29T11:51:18.942Z,5.00
2022-07-29T11:54:04.268Z,4.18
2022-07-29T11:56:32.805Z,4.55
2022-07-29T11:59:05.693Z,5.45
2022-07-29T12:01:35.278Z,4.95
2022-07-29T12:04:08.639Z,4.10
2022-07-29T12:06:35.604Z,4.32
2022-07-29T12:09:08.051Z,4.45
2022-07-29T12:11:40.911Z,4.63
2022-07-29T12:14:07.338Z,5.10
2022-07-29T12:16:38.249Z,5.53
2022-07-29T12:19:05.323Z,5.22
2022-07-29T12:21:53.779Z,4.80
2022-07-29T12:24:26.991Z,4.45
2022-07-29T12:26:58.827Z,4.85
2022-07-29T12:29:34.634Z,4.57
2022-07-29T12:32:03.967Z,4.63
2022-07-29T12:34:31.068Z,4.60
2022-07-29T12:36:57.632Z,4.45
2022-07-29T12:39:27.265Z,4.35
2022-07-29T12:41:54.332Z,4.18
2022-07-29T12:44:52.190Z,3.70
2022-07-29T12:47:20.042Z,4.45
2022-07-29T12:49:47.737Z,4.47
2022-07-29T12:52:29.627Z,4.90
2022-07-29T12:54:56.320Z,4.70
2022-07-29T12:57:23.426Z,5.05
2022-07-29T13:00:24.006Z,5.32
2022-07-29T13:02:58.526Z,5.88
2022-07-29T13:05:40.551Z,5.10
2022-07-29T13:08:20.384Z,5.20
2022-07-29T13:10:49.157Z,5.43
2022-07-29T13:13:16.419Z,5.30
2022-07-29T13:15:44.931Z,5.25
2022-07-29T13:18:28.504Z,6.20
2022-07-29T13:20:58.932Z,5.13
2022-07-29T13:23:25.848Z,5.22
2022-07-29T13:25:52.810Z,5.10
2022-07-29T13:28:22.474Z,5.40
2022-07-29T13:30:49.259Z,4.70
2022-07-29T13:33:16.091Z,5.85
2022-07-29T13:35:42.597Z,5.50
2022-07-29T13:38:09.749Z,4.38
2022-07-29T13:40:36.534Z,4.50
2022-07-29T13:43:03.241Z,4.90
2022-07-29T13:45:31.034Z,4.82
2022-07-29T13:47:57.653Z,4.90
2022-07-29T13:50:24.150Z,5.13
2022-07-29T13:52:51.691Z,4.68
2022-07-29T13:55:18.446Z,4.85
2022-07-29T13:57:45.213Z,4.97
2022-07-29T14:00:12.948Z,4.50
2022-07-29T14:02:40.588Z,4.97
2022-07-29T14:05:08.830Z,5.20
2022-07-29T14:07:35.784Z,4.68
2022-07-29T14:10:02.471Z,4.50
2022-07-29T14:12:29.487Z,4.95
2022-07-29T14:14:55.980Z,5.38
2022-07-29T14:17:23.244Z,5.20
2022-07-29T14:19:52.219Z,5.75
2022-07-29T14:22:20.013Z,5.45
2022-07-29T14:24:49.824Z,4.90
2022-07-29T14:27:16.355Z,4.90
2022-07-29T14:29:42.955Z,6.13
2022-07-29T14:32:11.110Z,5.07
2022-07-29T14:34:38.739Z,5.35
2022-07-29T14:37:09.272Z,5.38
2022-07-29T14:39:42.772Z,5.07
2022-07-29T14:42:12.324Z,5.40
2022-07-29T14:44:40.912Z,5.72
2022-07-29T14:47:08.459Z,6.13
2022-07-29T14:49:35.897Z,5.03
2022-07-29T14:52:02.839Z,5.82
2022-07-29T14:54:29.738Z,5.38
2022-07-29T14:56:58.911Z,6.18
2022-07-29T14:59:26.399Z,5.43
2022-07-29T15:01:56.653Z,5.95
2022-07-29T15:06:51.387Z,5.72
2022-07-29T15:09:17.989Z,5.60
2022-07-29T15:11:44.850Z,5.75
2022-07-29T15:14:11.818Z,6.28
2022-07-29T15:16:43.958Z,5.57
2022-07-29T15:19:14.056Z,4.80
2022-07-29T15:21:41.662Z,4.70
2022-07-29T15:24:16.207Z,4.65
2022-07-29T15:26:43.874Z,4.90
2022-07-29T15:29:10.348Z,5.55
2022-07-29T15:31:36.906Z,4.75
2022-07-29T15:34:06.315Z,4.72
2022-07-29T15:36:51.634Z,4.50
2022-07-29T15:39:19.926Z,4.40
2022-07-29T15:41:46.589Z,4.20
2022-07-29T15:44:13.039Z,4.38
2022-07-29T15:46:58.159Z,4.00
2022-07-29T15:49:31.366Z,4.25
2022-07-29T15:54:42.049Z,4.32
2022-07-29T15:57:09.968Z,4.20
2022-07-29T15:59:36.526Z,4.50
2022-07-29T16:02:03.528Z,4.78
2022-07-29T16:04:30.154Z,4.40
2022-07-29T16:06:57.379Z,3.85
2022-07-29T16:09:24.249Z,3.95
2022-07-29T16:11:54.019Z,4.25
2022-07-29T16:14:20.990Z,4.50
2022-07-29T16:16:47.645Z,3.90
2022-07-29T16:19:15.455Z,4.00
2022-07-29T16:21:42.383Z,3.95
2022-07-29T16:24:09.154Z,4.20
2022-07-29T16:26:35.752Z,4.72
2022-07-29T16:29:02.277Z,3.80
2022-07-29T16:31:29.188Z,3.95
2022-07-29T16:33:56.487Z,4.65
2022-07-29T16:36:23.489Z,4.00
2022-07-29T16:38:50.542Z,4.07
2022-07-29T16:41:17.140Z,3.90
2022-07-29T16:43:43.951Z,3.45
2022-07-29T16:46:12.506Z,4.30
2022-07-29T16:48:45.389Z,4.18
2022-07-29T16:51:11.933Z,4.32
2022-07-29T16:53:41.309Z,3.63
2022-07-29T16:56:11.813Z,4.53
2022-07-29T16:58:43.622Z,4.30
2022-07-29T17:01:11.749Z,3.88
2022-07-29T17:04:01.043Z,3.92
2022-07-29T17:06:29.533Z,4.07
2022-07-29T17:08:56.490Z,4.40
2022-07-29T17:11:23.100Z,3.92
2022-07-29T17:14:10.642Z,4.70
2022-07-29T17:16:37.337Z,4.00
2022-07-29T17:19:04.131Z,4.63
2022-07-29T17:21:30.595Z,4.40
2022-07-29T17:23:59.193Z,4.82
2022-07-29T17:26:27.354Z,4.30
2022-07-29T17:28:54.779Z,4.10
2022-07-29T17:31:21.339Z,4.18
2022-07-29T17:33:47.798Z,4.40
2022-07-29T17:36:29.320Z,4.53
2022-07-29T17:38:58.232Z,4.60
2022-07-29T17:41:25.368Z,4.07
2022-07-29T17:43:52.530Z,4.20
2022-07-29T17:46:19.777Z,4.75
2022-07-29T17:48:46.547Z,4.47
2022-07-29T17:51:13.292Z,5.13
2022-07-29T17:53:40.074Z,4.80
2022-07-29T17:56:09.420Z,4.50
2022-07-29T17:58:36.300Z,4.53
2022-07-29T18:01:02.847Z,4.40
2022-07-29T18:03:29.642Z,3.92
2022-07-29T18:05:56.284Z,4.30
2022-07-29T18:08:25.353Z,4.30
2022-07-29T18:10:51.888Z,3.97
2022-07-29T18:13:19.226Z,4.53
2022-07-29T18:15:46.694Z,4.35
2022-07-29T18:18:16.742Z,3.92
2022-07-29T18:20:43.522Z,3.97
2022-07-29T18:23:10.274Z,4.00
2022-07-29T18:25:37.506Z,4.05
2022-07-29T18:28:04.968Z,4.63
2022-07-29T18:30:33.860Z,4.10
2022-07-29T18:33:20.300Z,4.38
2022-07-29T18:36:10.835Z,3.75
2022-07-29T18:38:41.677Z,4.28
2022-07-29T18:41:11.249Z,4.40
2022-07-29T18:43:37.773Z,4.90
2022-07-29T18:46:05.767Z,4.38
2022-07-29T18:48:34.024Z,4.10
2022-07-29T18:51:09.445Z,5.38
2022-07-29T18:53:51.409Z,4.90
2022-07-29T18:56:43.830Z,4.40
2022-07-29T18:59:29.643Z,4.60
2022-07-29T19:01:57.721Z,4.95
2022-07-29T19:04:33.675Z,4.95
2022-07-29T19:07:04.119Z,5.57
2022-07-29T19:09:49.430Z,4.82
2022-07-29T19:12:18.712Z,5.05
2022-07-29T19:14:50.650Z,5.78
2022-07-29T19:20:03.361Z,8.10
2022-07-29T19:22:30.947Z,6.50
2022-07-29T19:24:57.853Z,6.65
2022-07-29T19:27:32.664Z,6.40
2022-07-29T19:30:00.380Z,6.03
2022-07-29T19:32:30.320Z,6.43
2022-07-29T19:35:24.377Z,7.30
2022-07-29T19:37:53.467Z,5.93
2022-07-29T19:40:23.069Z,5.80
2022-07-29T19:42:53.717Z,6.97
2022-07-29T19:45:22.408Z,6.28
2022-07-29T19:47:51.513Z,6.50
2022-07-29T19:50:18.642Z,7.10
2022-07-29T19:52:47.041Z,6.65
2022-07-29T19:55:14.534Z,7.05
2022-07-29T19:57:50.515Z,6.85
2022-07-29T20:00:21.122Z,6.70
2022-07-29T20:02:48.433Z,6.53
2022-07-29T20:05:16.048Z,7.57
2022-07-29T20:07:47.004Z,7.47
2022-07-29T20:12:42.700Z,6.88
2022-07-29T20:15:10.615Z,7.68
2022-07-29T20:17:46.031Z,7.13
2022-07-29T20:20:14.582Z,7.65
2022-07-29T20:22:41.164Z,8.18
2022-07-29T20:25:10.101Z,7.53
2022-07-29T20:27:40.261Z,7.82
2022-07-29T20:30:07.516Z,7.47
2022-07-29T20:32:34.551Z,7.05
2022-07-29T20:35:01.038Z,8.02
2022-07-29T20:37:27.538Z,7.47
2022-07-29T20:39:56.195Z,7.53
2022-07-29T20:42:22.704Z,8.02
2022-07-29T20:44:51.177Z,8.30
2022-07-29T20:47:17.905Z,7.95
2022-07-29T20:49:44.435Z,8.20
2022-07-29T20:52:10.917Z,8.63
2022-07-29T20:54:37.396Z,8.10
2022-07-29T20:57:04.088Z,8.60
2022-07-29T20:59:30.552Z,8.15
2022-07-29T21:01:57.104Z,8.50
2022-07-29T21:04:30.494Z,8.95
2022-07-29T21:06:58.305Z,8.77
2022-07-29T21:09:24.937Z,9.05
2022-07-29T21:11:51.463Z,8.50
2022-07-29T21:14:36.980Z,8.25
2022-07-29T21:17:06.175Z,8.60
2022-07-29T21:19:33.266Z,8.48
2022-07-29T21:21:59.833Z,8.50
2022-07-29T21:24:26.390Z,8.50
2022-07-29T21:27:18.366Z,8.07
2022-07-29T21:29:42.306Z,8.32
2022-07-29T21:32:08.871Z,8.82
2022-07-29T21:34:35.446Z,8.73
2022-07-29T21:37:02.164Z,8.93
2022-07-29T21:39:32.004Z,8.07
2022-07-29T21:41:58.509Z,8.93
2022-07-29T21:44:25.171Z,8.77
2022-07-29T21:46:51.637Z,8.45
2022-07-29T21:49:18.556Z,8.70
2022-07-29T21:51:47.912Z,8.48
2022-07-29T21:54:14.446Z,8.27
2022-07-29T21:56:41.006Z,8.75
2022-07-29T21:59:09.841Z,8.38
2022-07-29T22:04:06.571Z,8.77
2022-07-29T22:06:34.525Z,9.70
2022-07-29T22:09:01.127Z,9.70
2022-07-29T22:11:27.736Z,10.25
2022-07-29T22:13:54.271Z,10.30
2022-07-29T22:16:20.869Z,10.90
2022-07-29T22:18:48.326Z,10.07
2022-07-29T22:21:18.138Z,9.80
2022-07-29T22:23:44.729Z,9.52
2022-07-29T22:26:11.250Z,8.95
2022-07-29T22:28:37.687Z,9.43
2022-07-29T22:31:04.934Z,8.90
2022-07-29T22:33:31.409Z,9.60
2022-07-29T22:35:57.827Z,9.90
2022-07-29T22:38:27.371Z,9.15
2022-07-29T22:40:54.070Z,9.57
2022-07-29T22:43:27.096Z,10.90
2022-07-29T22:45:53.622Z,9.60
2022-07-29T22:48:20.162Z,10.10
2022-07-29T22:50:46.681Z,9.63
2022-07-29T22:53:13.194Z,10.15
2022-07-29T22:55:39.755Z,10.02
2022-07-29T22:58:08.575Z,9.40
2022-07-29T23:00:36.461Z,9.60
2022-07-29T23:03:03.107Z,8.75
2022-07-29T23:05:29.759Z,9.48
2022-07-29T23:07:56.360Z,8.50
2022-07-29T23:10:22.850Z,8.65
2022-07-29T23:12:49.378Z,8.32
2022-07-29T23:15:18.299Z,9.77
2022-07-29T23:17:44.812Z,8.55
2022-07-29T23:20:11.466Z,9.43
2022-07-29T23:22:43.383Z,8.50
2022-07-29T23:25:10.155Z,8.90
2022-07-29T23:27:36.658Z,8.38
2022-07-29T23:30:04.884Z,8.95
2022-07-29T23:32:31.425Z,8.82
2022-07-29T23:35:00.200Z,9.05
2022-07-29T23:37:27.025Z,8.75
2022-07-29T23:39:53.748Z,8.93
2022-07-29T23:42:20.202Z,9.15
2022-07-29T23:44:46.647Z,9.57
2022-07-29T23:47:13.663Z,9.68
2022-07-29T23:49:40.274Z,8.80
2022-07-29T23:52:06.950Z,9.63
2022-07-29T23:54:33.457Z,9.90
2022-07-29T23:57:00.158Z,10.07
2022-07-29T23:59:26.904Z,9.35
